Time,TemperatureF,DewpointF,PressureIn,WindDirection,WindDirectionDegrees,WindSpeedMPH,WindSpeedGustMPH,Humidity,HourlyPrecipIn,Conditions,Clouds,dailyrainin,SoftwareType,DateUTC
2013-01-09 00:00:00,32.1,29.5,30.36,West,270,0.0,0.0,90,0.00,,SKC,0.00,VWS V14.01,2013-01-09 05:00:00,
2013-01-09 00:01:00,31.9,29.3,30.36,West,270,0.0,0.0,90,0.00,,SKC,0.00,VWS V14.01,2013-01-09 05:01:00,
2013-01-09 00:03:00,31.9,29.3,30.36,West,270,0.0,0.0,90,0.00,,SKC,0.00,VWS V14.01,2013-01-09 05:03:00,
2013-01-09 00:08:00,31.5,28.9,30.36,West,270,0.0,0.0,90,0.00,,SKC,0.00,VWS V14.01,2013-01-09 05:08:00,
2013-01-09 00:10:00,31.3,28.7,30.36,West,270,0.0,0.0,90,0.00,,SKC,0.00,VWS V14.01,2013-01-09 05:10:00,
2013-01-09 00:13:00,31.3,28.7,30.36,West,270,0.0,0.0,90,0.00,,SKC,0.00,VWS V14.01,2013-01-09 05:13:00,
2013-01-09 00:18:00,31.0,28.4,30.36,West,270,0.0,0.0,90,0.00,,SKC,0.00,VWS V14.01,2013-01-09 05:18:00,
2013-01-09 00:20:00,30.9,28.3,30.35,West,270,0.0,0.0,90,0.00,,SKC,0.00,VWS V14.01,2013-01-09 05:20:00,
2013-01-09 00:23:00,30.7,28.1,30.35,West,270,0.0,0.0,90,0.00,,SKC,0.00,VWS V14.01,2013-01-09 05:23:00,
2013-01-09 00:28:00,30.6,28.0,30.35,West,270,0.0,0.0,90,0.00,,SKC,0.00,VWS V14.01,2013-01-09 05:28:00,
2013-01-09 00:30:00,30.4,27.8,30.35,West,270,0.0,0.0,90,0.00,,SKC,0.00,VWS V14.01,2013-01-09 05:30:00,
2013-01-09 00:33:00,30.4,27.8,30.35,West,270,0.0,0.0,90,0.00,,SKC,0.00,VWS V14.01,2013-01-09 05:33:00,
2013-01-09 00:38:00,30.3,27.7,30.35,West,270,0.0,0.0,90,0.00,,SKC,0.00,VWS V14.01,2013-01-09 05:38:00,
2013-01-09 00:40:00,30.1,27.5,30.35,West,270,0.0,0.0,90,0.00,,SKC,0.00,VWS V14.01,2013-01-09 05:40:00,
2013-01-09 00:43:00,30.1,27.5,30.35,West,270,0.0,0.0,90,0.00,,SKC,0.00,VWS V14.01,2013-01-09 05:43:00,
2013-01-09 00:48:00,29.8,27.2,30.35,West,270,0.0,0.0,90,0.00,,SKC,0.00,VWS V14.01,2013-01-09 05:48:00,
2013-01-09 00:50:00,29.8,27.2,30.35,West,270,0.0,0.0,90,0.00,,SKC,0.00,VWS V14.01,2013-01-09 05:50:00,
2013-01-09 00:54:00,29.7,27.1,30.35,West,270,0.0,0.0,90,0.00,,SKC,0.00,VWS V14.01,2013-01-09 05:54:00,
2013-01-09 00:59:00,29.5,26.9,30.35,West,270,0.0,0.0,90,0.00,,SKC,0.00,VWS V14.01,2013-01-09 05:59:00,
2013-01-09 01:00:00,29.5,26.9,30.36,West,270,0.0,0.0,90,0.00,,SKC,0.00,VWS V14.01,2013-01-09 06:00:00,
2013-01-09 01:04:00,29.4,26.8,30.36,West,270,0.0,0.0,90,0.00,,SKC,0.00,VWS V14.01,2013-01-09 06:04:00,
2013-01-09 01:09:00,29.3,26.7,30.36,West,270,0.0,0.0,90,0.00,,SKC,0.00,VWS V14.01,2013-01-09 06:09:00,
2013-01-09 01:10:00,29.3,26.7,30.36,West,270,0.0,0.0,90,0.00,,SKC,0.00,VWS V14.01,2013-01-09 06:10:00,
2013-01-09 01:14:00,29.1,26.5,30.35,West,270,0.0,0.0,90,0.00,,SKC,0.00,VWS V14.01,2013-01-09 06:14:00,
2013-01-09 01:19:00,29.0,26.4,30.36,West,270,0.0,0.0,90,0.00,,SKC,0.00,VWS V14.01,2013-01-09 06:19:00,
2013-01-09 01:20:00,29.0,26.4,30.36,West,270,0.0,0.0,90,0.00,,SKC,0.00,VWS V14.01,2013-01-09 06:20:00,
2013-01-09 01:24:00,28.8,26.2,30.36,West,270,0.0,0.0,90,0.00,,SKC,0.00,VWS V14.01,2013-01-09 06:24:00,
2013-01-09 01:29:00,28.7,26.1,30.36,West,270,0.0,0.0,90,0.00,,SKC,0.00,VWS V14.01,2013-01-09 06:29:00,
2013-01-09 01:30:00,28.7,26.1,30.36,West,270,0.0,0.0,90,0.00,,SKC,0.00,VWS V14.01,2013-01-09 06:30:00,
2013-01-09 01:35:00,28.7,26.1,30.37,West,270,0.0,0.0,90,0.00,,SKC,0.00,VWS V14.01,2013-01-09 06:35:00,
2013-01-09 01:40:00,28.5,26.0,30.37,North,0,0.0,0.0,90,0.00,,SKC,0.00,VWS V14.01,2013-01-09 06:40:00,
2013-01-09 01:50:00,28.2,25.6,30.37,North,0,0.0,0.0,90,0.00,,SKC,0.00,VWS V14.01,2013-01-09 06:50:00,
2013-01-09 02:00:00,28.1,25.5,30.37,North,0,0.0,0.0,90,0.00,,SKC,0.00,VWS V14.01,2013-01-09 07:00:00,
2013-01-09 02:10:00,27.9,25.4,30.36,North,0,0.0,0.0,90,0.00,,SKC,0.00,VWS V14.01,2013-01-09 07:10:00,
2013-01-09 02:20:00,27.8,25.2,30.37,North,0,0.0,0.0,90,0.00,,SKC,0.00,VWS V14.01,2013-01-09 07:20:00,
2013-01-09 02:30:00,27.8,25.2,30.36,North,0,0.0,0.0,90,0.00,,SKC,0.00,VWS V14.01,2013-01-09 07:30:00,
2013-01-09 02:40:00,27.6,25.1,30.36,North,0,0.0,0.0,90,0.00,,SKC,0.00,VWS V14.01,2013-01-09 07:40:00,
2013-01-09 02:50:00,27.5,25.0,30.37,North,0,0.0,0.0,90,0.00,,SKC,0.00,VWS V14.01,2013-01-09 07:50:00,
2013-01-09 03:00:00,27.3,25.0,30.36,North,0,0.0,0.0,91,0.00,,SKC,0.00,VWS V14.01,2013-01-09 08:00:00,
2013-01-09 03:10:00,27.3,25.0,30.37,North,0,0.0,0.0,91,0.00,,SKC,0.00,VWS V14.01,2013-01-09 08:10:00,
2013-01-09 03:20:00,27.2,24.9,30.36,North,0,0.0,0.0,91,0.00,,SKC,0.00,VWS V14.01,2013-01-09 08:20:00,
2013-01-09 03:30:00,27.0,24.7,30.36,North,0,0.0,0.0,91,0.00,,SKC,0.00,VWS V14.01,2013-01-09 08:30:00,
2013-01-09 03:40:00,26.9,24.6,30.36,North,0,0.0,0.0,91,0.00,,SKC,0.00,VWS V14.01,2013-01-09 08:40:00,
2013-01-09 03:50:00,26.7,24.4,30.35,North,0,0.0,0.0,91,0.00,,SKC,0.00,VWS V14.01,2013-01-09 08:50:00,
2013-01-09 04:00:00,26.6,24.3,30.35,North,0,0.0,0.0,91,0.00,,SKC,0.00,VWS V14.01,2013-01-09 09:00:00,
2013-01-09 04:10:00,26.6,24.3,30.34,North,0,0.0,0.0,91,0.00,,SKC,0.00,VWS V14.01,2013-01-09 09:10:00,
2013-01-09 04:20:00,26.6,24.3,30.35,North,0,0.0,0.0,91,0.00,,SKC,0.00,VWS V14.01,2013-01-09 09:20:00,
2013-01-09 04:30:00,26.7,24.7,30.35,North,0,0.0,0.0,92,0.00,,SKC,0.00,VWS V14.01,2013-01-09 09:30:00,
2013-01-09 04:40:00,26.7,24.7,30.35,North,0,0.0,0.0,92,0.00,,SKC,0.00,VWS V14.01,2013-01-09 09:40:00,
2013-01-09 04:50:00,26.9,24.9,30.35,North,0,0.0,0.0,92,0.00,,SKC,0.00,VWS V14.01,2013-01-09 09:50:00,
2013-01-09 05:00:00,26.7,24.7,30.35,North,0,0.0,0.0,92,0.00,,SKC,0.00,VWS V14.01,2013-01-09 10:00:00,
2013-01-09 05:10:00,26.7,24.7,30.35,North,0,0.0,0.0,92,0.00,,SKC,0.00,VWS V14.01,2013-01-09 10:10:00,
2013-01-09 05:20:00,26.9,25.1,30.34,North,0,0.0,0.0,93,0.00,,SKC,0.00,VWS V14.01,2013-01-09 10:20:00,
2013-01-09 05:30:00,27.0,25.2,30.34,North,0,0.0,0.0,93,0.00,,SKC,0.00,VWS V14.01,2013-01-09 10:30:00,
2013-01-09 05:40:00,27.2,25.5,30.35,North,0,0.0,0.0,93,0.00,,SKC,0.00,VWS V14.01,2013-01-09 10:40:00,
2013-01-09 05:50:00,27.5,25.8,30.35,North,0,0.0,0.0,93,0.00,,SKC,0.00,VWS V14.01,2013-01-09 10:50:00,
2013-01-09 06:00:00,27.6,26.1,30.36,North,0,0.0,0.0,94,0.00,,SKC,0.00,VWS V14.01,2013-01-09 11:00:00,
2013-01-09 06:10:00,27.8,26.3,30.36,North,0,0.0,0.0,94,0.00,,SKC,0.00,VWS V14.01,2013-01-09 11:10:00,
2013-01-09 06:20:00,27.8,26.3,30.36,North,0,0.0,0.0,94,0.00,,SKC,0.00,VWS V14.01,2013-01-09 11:20:00,
2013-01-09 06:30:00,27.8,26.3,30.37,North,0,0.0,0.0,94,0.00,,SKC,0.00,VWS V14.01,2013-01-09 11:30:00,
2013-01-09 06:40:00,27.6,26.1,30.35,North,0,0.0,0.0,94,0.00,,SKC,0.00,VWS V14.01,2013-01-09 11:40:00,
2013-01-09 06:50:00,27.6,26.1,30.37,North,0,0.0,0.0,94,0.00,,SKC,0.00,VWS V14.01,2013-01-09 11:50:00,
2013-01-09 07:00:00,27.6,26.4,30.37,North,0,0.0,0.0,95,0.00,,SKC,0.00,VWS V14.01,2013-01-09 12:00:00,
2013-01-09 07:10:00,27.9,26.7,30.36,North,0,0.0,0.0,95,0.00,,SKC,0.00,VWS V14.01,2013-01-09 12:10:00,
2013-01-09 07:20:00,27.9,26.7,30.37,North,0,0.0,0.0,95,0.00,,SKC,0.00,VWS V14.01,2013-01-09 12:20:00,
2013-01-09 07:30:00,28.1,26.9,30.37,North,0,0.0,0.0,95,0.00,,SKC,0.00,VWS V14.01,2013-01-09 12:30:00,
2013-01-09 07:40:00,28.4,27.1,30.37,North,0,0.0,0.0,95,0.00,,SKC,0.00,VWS V14.01,2013-01-09 12:40:00,
2013-01-09 07:50:00,28.4,27.1,30.37,North,0,0.0,0.0,95,0.00,,SKC,0.00,VWS V14.01,2013-01-09 12:50:00,
2013-01-09 08:00:00,28.5,27.2,30.37,North,0,0.0,0.0,95,0.00,,SKC,0.00,VWS V14.01,2013-01-09 13:00:00,
2013-01-09 08:10:00,28.5,27.5,30.37,North,0,0.0,0.0,96,0.00,,SKC,0.00,VWS V14.01,2013-01-09 13:10:00,
2013-01-09 08:20:00,28.7,27.7,30.37,North,0,0.0,0.0,96,0.00,,SKC,0.00,VWS V14.01,2013-01-09 13:20:00,
2013-01-09 08:30:00,29.0,28.0,30.37,North,0,0.0,0.0,96,0.00,,SKC,0.00,VWS V14.01,2013-01-09 13:30:00,
2013-01-09 08:40:00,29.3,28.3,30.38,North,0,0.0,0.0,96,0.00,,SKC,0.00,VWS V14.01,2013-01-09 13:40:00,
2013-01-09 08:50:00,29.7,28.7,30.37,North,0,0.0,0.0,96,0.00,,SKC,0.00,VWS V14.01,2013-01-09 13:50:00,
2013-01-09 09:00:00,30.3,29.5,30.36,North,0,0.0,0.0,97,0.00,,SKC,0.00,VWS V14.01,2013-01-09 14:00:00,
2013-01-09 09:10:00,31.5,31.0,30.36,North,0,0.0,0.0,98,0.00,,SKC,0.00,VWS V14.01,2013-01-09 14:10:00,
2013-01-09 09:20:00,32.8,32.3,30.36,North,0,0.0,0.0,98,0.00,,SKC,0.00,VWS V14.01,2013-01-09 14:20:00,
2013-01-09 09:30:00,34.1,33.6,30.36,North,0,0.0,0.0,98,0.00,,SKC,0.00,VWS V14.01,2013-01-09 14:30:00,
2013-01-09 09:40:00,35.2,34.7,30.36,North,0,0.0,0.0,98,0.00,,SKC,0.00,VWS V14.01,2013-01-09 14:40:00,
2013-01-09 10:04:00,35.2,34.7,30.36,North,0,0.0,0.0,98,0.00,,SKC,0.00,VWS V14.01,2013-01-09 15:04:00,
2013-01-09 10:10:00,37.6,37.3,30.36,West,270,0.0,0.0,99,0.00,,SKC,0.00,VWS V14.01,2013-01-09 15:10:00,
2013-01-09 10:14:00,38.0,37.7,30.36,West,270,0.0,0.0,99,0.00,,SKC,0.00,VWS V14.01,2013-01-09 15:14:00,
2013-01-09 10:20:00,38.3,38.0,30.35,West,270,0.0,0.0,99,0.00,,SKC,0.00,VWS V14.01,2013-01-09 15:20:00,
2013-01-09 10:25:00,38.9,38.6,30.35,West,270,0.0,0.0,99,0.00,,SKC,0.00,VWS V14.01,2013-01-09 15:25:00,
2013-01-09 10:30:00,40.3,40.3,30.34,West,270,0.0,0.0,100,0.00,,SKC,0.00,VWS V14.01,2013-01-09 15:30:00,
2013-01-09 10:35:00,41.1,40.6,30.34,West,270,0.0,0.0,98,0.00,,SKC,0.00,VWS V14.01,2013-01-09 15:35:00,
2013-01-09 10:40:00,41.8,40.8,30.33,West,270,0.0,0.0,96,0.00,,SKC,0.00,VWS V14.01,2013-01-09 15:40:00,
2013-01-09 10:45:00,42.3,40.7,30.33,West,270,0.0,0.0,94,0.00,,SKC,0.00,VWS V14.01,2013-01-09 15:45:00,
2013-01-09 10:50:00,42.8,40.4,30.33,West,270,0.0,0.0,91,0.00,,SKC,0.00,VWS V14.01,2013-01-09 15:50:00,
2013-01-09 10:55:00,42.9,39.6,30.32,West,270,0.0,1.0,88,0.00,,SKC,0.00,VWS V14.01,2013-01-09 15:55:00,
2013-01-09 11:00:00,43.1,39.5,30.32,West,270,0.0,1.0,87,0.00,,SKC,0.00,VWS V14.01,2013-01-09 16:00:00,
2013-01-09 11:05:00,43.2,39.0,30.32,West,270,0.0,0.0,85,0.00,,SKC,0.00,VWS V14.01,2013-01-09 16:05:00,
2013-01-09 11:10:00,43.2,38.4,30.31,West,270,0.0,1.0,83,0.00,,SKC,0.00,VWS V14.01,2013-01-09 16:10:00,
2013-01-09 11:11:00,43.2,38.4,30.31,West,270,0.0,1.0,83,0.00,,SKC,0.00,VWS V14.01,2013-01-09 16:11:00,
2013-01-09 11:16:00,43.2,38.1,30.31,West,270,0.0,0.0,82,0.00,,SKC,0.00,VWS V14.01,2013-01-09 16:16:00,
2013-01-09 11:20:00,43.3,38.2,30.31,West,270,0.0,0.0,82,0.00,,SKC,0.00,VWS V14.01,2013-01-09 16:20:00,
2013-01-09 11:21:00,43.3,38.2,30.31,West,270,0.0,0.0,82,0.00,,SKC,0.00,VWS V14.01,2013-01-09 16:21:00,
2013-01-09 11:26:00,43.5,38.4,30.30,West,270,0.0,0.0,82,0.00,,SKC,0.00,VWS V14.01,2013-01-09 16:26:00,
2013-01-09 11:30:00,43.3,37.9,30.30,West,270,0.0,0.0,81,0.00,,SKC,0.00,VWS V14.01,2013-01-09 16:30:00,
2013-01-09 11:31:00,43.3,37.9,30.30,West,270,0.0,0.0,81,0.00,,SKC,0.00,VWS V14.01,2013-01-09 16:31:00,
2013-01-09 11:36:00,43.2,38.1,30.29,West,270,0.0,0.0,82,0.00,,SKC,0.00,VWS V14.01,2013-01-09 16:36:00,
2013-01-09 11:40:00,43.5,38.4,30.29,West,270,0.0,0.0,82,0.00,,SKC,0.00,VWS V14.01,2013-01-09 16:40:00,
2013-01-09 11:41:00,43.5,38.4,30.29,West,270,0.0,0.0,82,0.00,,SKC,0.00,VWS V14.01,2013-01-09 16:41:00,
2013-01-09 11:46:00,43.9,39.1,30.27,West,270,0.0,0.0,83,0.00,,SKC,0.00,VWS V14.01,2013-01-09 16:46:00,
2013-01-09 11:50:00,44.1,39.3,30.27,West,270,0.0,0.0,83,0.00,,SKC,0.00,VWS V14.01,2013-01-09 16:50:00,
2013-01-09 11:51:00,44.1,39.3,30.27,West,270,0.0,0.0,83,0.00,,SKC,0.00,VWS V14.01,2013-01-09 16:51:00,
2013-01-09 11:56:00,44.2,39.7,30.27,West,270,0.0,0.0,84,0.00,,SKC,0.00,VWS V14.01,2013-01-09 16:56:00,
2013-01-09 12:00:00,44.2,39.7,30.26,West,270,0.0,0.0,84,0.00,,SKC,0.00,VWS V14.01,2013-01-09 17:00:00,
2013-01-09 12:01:00,44.2,39.7,30.26,West,270,0.0,0.0,84,0.00,,SKC,0.00,VWS V14.01,2013-01-09 17:01:00,
2013-01-09 12:06:00,44.2,40.0,30.25,West,270,0.0,0.0,85,0.00,,SKC,0.00,VWS V14.01,2013-01-09 17:06:00,
2013-01-09 12:10:00,44.3,40.4,30.25,West,270,0.0,0.0,86,0.00,,SKC,0.00,VWS V14.01,2013-01-09 17:10:00,
2013-01-09 12:11:00,44.3,40.4,30.25,West,270,0.0,0.0,86,0.00,,SKC,0.00,VWS V14.01,2013-01-09 17:11:00,
2013-01-09 12:16:00,44.3,40.4,30.25,West,270,0.0,0.0,86,0.00,,SKC,0.00,VWS V14.01,2013-01-09 17:16:00,
2013-01-09 12:20:00,44.5,40.6,30.25,West,270,0.0,0.0,86,0.00,,SKC,0.00,VWS V14.01,2013-01-09 17:20:00,
2013-01-09 12:21:00,44.5,40.6,30.25,West,270,0.0,0.0,86,0.00,,SKC,0.00,VWS V14.01,2013-01-09 17:21:00,
2013-01-09 12:26:00,44.6,41.0,30.24,West,270,0.0,0.0,87,0.00,,SKC,0.00,VWS V14.01,2013-01-09 17:26:00,
2013-01-09 12:30:00,44.8,41.2,30.23,West,270,0.0,0.0,87,0.00,,SKC,0.00,VWS V14.01,2013-01-09 17:30:00,
2013-01-09 12:31:00,44.8,41.2,30.23,West,270,0.0,0.0,87,0.00,,SKC,0.00,VWS V14.01,2013-01-09 17:31:00,
2013-01-09 12:37:00,44.8,41.2,30.22,West,270,0.0,0.0,87,0.00,,SKC,0.00,VWS V14.01,2013-01-09 17:37:00,
2013-01-09 12:40:00,44.9,41.6,30.22,West,270,0.0,0.0,88,0.00,,SKC,0.00,VWS V14.01,2013-01-09 17:40:00,
2013-01-09 12:42:00,44.9,41.6,30.22,West,270,0.0,0.0,88,0.00,,SKC,0.00,VWS V14.01,2013-01-09 17:42:00,
2013-01-09 12:47:00,45.2,41.9,30.22,West,270,0.0,0.0,88,0.00,,SKC,0.00,VWS V14.01,2013-01-09 17:47:00,
2013-01-09 12:50:00,45.2,42.2,30.22,West,270,0.0,1.0,89,0.00,,SKC,0.00,VWS V14.01,2013-01-09 17:50:00,
2013-01-09 12:52:00,45.2,42.2,30.21,West,270,0.0,0.0,89,0.00,,SKC,0.00,VWS V14.01,2013-01-09 17:52:00,
2013-01-09 12:57:00,45.4,42.6,30.21,West,270,0.0,0.0,90,0.00,,SKC,0.00,VWS V14.01,2013-01-09 17:57:00,
2013-01-09 13:00:00,45.4,42.6,30.22,West,270,0.0,0.0,90,0.00,,SKC,0.00,VWS V14.01,2013-01-09 18:00:00,
2013-01-09 13:02:00,45.4,42.6,30.22,West,270,0.0,0.0,90,0.00,,SKC,0.00,VWS V14.01,2013-01-09 18:02:00,
2013-01-09 13:07:00,45.7,42.9,30.22,West,270,0.0,0.0,90,0.00,,SKC,0.00,VWS V14.01,2013-01-09 18:07:00,
2013-01-09 13:10:00,45.8,43.0,30.22,West,270,0.0,1.0,90,0.00,,SKC,0.00,VWS V14.01,2013-01-09 18:10:00,
2013-01-09 13:12:00,45.8,43.0,30.22,West,270,0.0,0.0,90,0.00,,SKC,0.00,VWS V14.01,2013-01-09 18:12:00,
2013-01-09 13:17:00,45.8,43.0,30.21,West,270,0.0,0.0,90,0.00,,SKC,0.00,VWS V14.01,2013-01-09 18:17:00,
2013-01-09 13:20:00,45.8,43.0,30.21,West,270,0.0,0.0,90,0.00,,SKC,0.00,VWS V14.01,2013-01-09 18:20:00,
2013-01-09 13:22:00,45.8,43.0,30.21,West,270,0.0,0.0,90,0.00,,SKC,0.00,VWS V14.01,2013-01-09 18:22:00,
2013-01-09 13:27:00,45.8,43.0,30.21,West,270,0.0,0.0,90,0.00,,SKC,0.00,VWS V14.01,2013-01-09 18:27:00,
2013-01-09 13:30:00,45.7,42.9,30.21,West,270,0.0,2.0,90,0.00,,SKC,0.00,VWS V14.01,2013-01-09 18:30:00,
2013-01-09 13:32:00,45.7,42.9,30.20,West,270,0.0,2.0,90,0.00,,SKC,0.00,VWS V14.01,2013-01-09 18:32:00,
2013-01-09 13:37:00,45.5,42.7,30.20,West,270,0.0,2.0,90,0.00,,SKC,0.00,VWS V14.01,2013-01-09 18:37:00,
2013-01-09 13:40:00,45.5,42.7,30.20,West,270,0.0,2.0,90,0.00,,SKC,0.00,VWS V14.01,2013-01-09 18:40:00,
2013-01-09 13:41:00,45.5,42.7,30.20,West,270,0.0,2.0,90,0.00,,SKC,0.00,VWS V14.01,2013-01-09 18:41:00,
2013-01-09 13:42:00,45.4,42.6,30.20,West,270,0.0,1.0,90,0.00,,SKC,0.00,VWS V14.01,2013-01-09 18:42:00,
2013-01-09 13:44:00,45.4,42.6,30.20,West,270,0.0,1.0,90,0.00,,SKC,0.00,VWS V14.01,2013-01-09 18:44:00,
2013-01-09 13:45:00,45.4,42.6,30.20,West,270,1.0,2.0,90,0.00,,SKC,0.00,VWS V14.01,2013-01-09 18:45:00,
2013-01-09 13:48:00,45.4,42.6,30.20,West,270,1.0,3.0,90,0.00,,SKC,0.00,VWS V14.01,2013-01-09 18:48:00,
2013-01-09 13:49:00,45.4,42.6,30.20,West,270,1.0,3.0,90,0.00,,SKC,0.00,VWS V14.01,2013-01-09 18:49:00,
2013-01-09 13:50:00,45.4,42.6,30.20,West,270,0.0,3.0,90,0.00,,SKC,0.00,VWS V14.01,2013-01-09 18:50:00,
2013-01-09 13:55:00,45.4,42.6,30.20,West,270,0.0,1.0,90,0.00,,SKC,0.00,VWS V14.01,2013-01-09 18:55:00,
2013-01-09 14:00:00,45.7,42.9,30.20,West,270,0.0,1.0,90,0.00,,SKC,0.00,VWS V14.01,2013-01-09 19:00:00,
2013-01-09 14:01:00,45.7,42.9,30.20,West,270,0.0,1.0,90,0.00,,SKC,0.00,VWS V14.01,2013-01-09 19:01:00,
2013-01-09 14:06:00,46.0,43.2,30.20,West,270,1.0,1.0,90,0.00,,SKC,0.00,VWS V14.01,2013-01-09 19:06:00,
2013-01-09 14:10:00,46.2,43.4,30.20,West,270,0.0,2.0,90,0.00,,SKC,0.00,VWS V14.01,2013-01-09 19:10:00,
2013-01-09 14:11:00,46.2,43.4,30.20,West,270,0.0,2.0,90,0.00,,SKC,0.00,VWS V14.01,2013-01-09 19:11:00,
2013-01-09 14:16:00,46.7,43.6,30.21,West,270,0.0,3.0,89,0.00,,SKC,0.00,VWS V14.01,2013-01-09 19:16:00,
2013-01-09 14:20:00,47.0,43.6,30.21,West,279,3.0,5.0,88,0.00,,SKC,0.00,VWS V14.01,2013-01-09 19:20:00,
2013-01-09 14:21:00,47.0,43.6,30.21,West,279,3.0,5.0,88,0.00,,SKC,0.00,VWS V14.01,2013-01-09 19:21:00,
2013-01-09 14:26:00,47.1,43.7,30.21,West,279,3.0,4.0,88,0.00,,SKC,0.00,VWS V14.01,2013-01-09 19:26:00,
2013-01-09 14:30:00,47.3,43.6,30.22,West,278,0.0,4.0,87,0.00,,SKC,0.00,VWS V14.01,2013-01-09 19:30:00,
2013-01-09 14:31:00,47.3,43.6,30.22,West,278,2.0,3.0,87,0.00,,SKC,0.00,VWS V14.01,2013-01-09 19:31:00,
2013-01-09 14:36:00,47.3,43.6,30.22,WNW,282,0.0,4.0,87,0.00,,SKC,0.00,VWS V14.01,2013-01-09 19:36:00,
2013-01-09 14:40:00,47.4,43.7,30.22,WNW,284,0.0,4.0,87,0.00,,SKC,0.00,VWS V14.01,2013-01-09 19:40:00,
2013-01-09 14:42:00,47.4,43.7,30.21,WNW,284,0.0,0.0,87,0.00,,SKC,0.00,VWS V14.01,2013-01-09 19:42:00,
2013-01-09 14:47:00,47.4,43.7,30.22,West,278,2.0,8.0,87,0.00,,SKC,0.00,VWS V14.01,2013-01-09 19:47:00,
2013-01-09 14:50:00,47.4,43.7,30.21,West,273,2.0,8.0,87,0.00,,SKC,0.00,VWS V14.01,2013-01-09 19:50:00,
2013-01-09 14:52:00,47.4,43.7,30.20,West,273,3.0,4.0,87,0.00,,SKC,0.00,VWS V14.01,2013-01-09 19:52:00,
2013-01-09 14:57:00,47.3,43.6,30.19,West,277,2.0,4.0,87,0.00,,SKC,0.00,VWS V14.01,2013-01-09 19:57:00,
2013-01-09 15:00:00,47.3,43.3,30.19,West,280,5.0,6.0,86,0.00,,SKC,0.00,VWS V14.01,2013-01-09 20:00:00,
2013-01-09 15:02:00,47.1,43.1,30.19,West,281,4.0,5.0,86,0.00,,SKC,0.00,VWS V14.01,2013-01-09 20:02:00,
2013-01-09 15:07:00,47.0,43.0,30.19,West,275,3.0,5.0,86,0.00,,SKC,0.00,VWS V14.01,2013-01-09 20:07:00,
2013-01-09 15:10:00,46.8,42.8,30.18,West,277,3.0,5.0,86,0.00,,SKC,0.00,VWS V14.01,2013-01-09 20:10:00,
2013-01-09 15:13:00,46.7,42.7,30.18,WNW,294,2.0,6.0,86,0.00,,SKC,0.00,VWS V14.01,2013-01-09 20:13:00,
2013-01-09 15:18:00,46.5,42.8,30.18,WNW,286,2.0,7.0,87,0.00,,SKC,0.00,VWS V14.01,2013-01-09 20:18:00,
2013-01-09 15:20:00,46.4,42.8,30.18,WNW,284,2.0,7.0,87,0.00,,SKC,0.00,VWS V14.01,2013-01-09 20:20:00,
2013-01-09 15:23:00,46.4,42.8,30.17,WNW,285,3.0,3.0,87,0.00,,SKC,0.00,VWS V14.01,2013-01-09 20:23:00,
2013-01-09 15:28:00,46.2,42.5,30.17,West,271,1.0,5.0,87,0.00,,SKC,0.00,VWS V14.01,2013-01-09 20:28:00,
2013-01-09 15:30:00,46.1,42.8,30.17,WNW,282,0.0,5.0,88,0.00,,SKC,0.00,VWS V14.01,2013-01-09 20:30:00,
2013-01-09 15:33:00,46.1,42.8,30.17,WNW,283,2.0,4.0,88,0.00,,SKC,0.00,VWS V14.01,2013-01-09 20:33:00,
2013-01-09 15:38:00,45.8,42.5,30.16,West,271,0.0,4.0,88,0.00,,SKC,0.00,VWS V14.01,2013-01-09 20:38:00,
2013-01-09 15:40:00,45.8,42.5,30.16,West,271,2.0,4.0,88,0.00,,SKC,0.00,VWS V14.01,2013-01-09 20:40:00,
2013-01-09 15:44:00,45.7,42.7,30.15,West,267,0.0,4.0,89,0.00,,SKC,0.00,VWS V14.01,2013-01-09 20:44:00,
2013-01-09 15:49:00,45.7,42.7,30.14,West,269,0.0,5.0,89,0.00,,SKC,0.00,VWS V14.01,2013-01-09 20:49:00,
2013-01-09 15:50:00,45.5,42.5,30.14,West,269,0.0,5.0,89,0.00,,SKC,0.00,VWS V14.01,2013-01-09 20:50:00,
2013-01-09 15:54:00,45.5,42.5,30.14,West,269,0.0,2.0,89,0.00,,SKC,0.00,VWS V14.01,2013-01-09 20:54:00,
2013-01-09 15:59:00,45.4,42.3,30.13,West,269,0.0,2.0,89,0.00,,SKC,0.00,VWS V14.01,2013-01-09 20:59:00,
2013-01-09 16:00:00,45.4,42.6,30.12,West,269,0.0,3.0,90,0.00,,SKC,0.00,VWS V14.01,2013-01-09 21:00:00,
2013-01-09 16:04:00,45.2,42.5,30.13,West,269,1.0,1.0,90,0.00,,SKC,0.00,VWS V14.01,2013-01-09 21:04:00,
2013-01-09 16:09:00,45.1,42.3,30.12,West,269,0.0,1.0,90,0.00,,SKC,0.00,VWS V14.01,2013-01-09 21:09:00,
2013-01-09 16:10:00,45.1,42.3,30.12,West,269,0.0,1.0,90,0.00,,SKC,0.00,VWS V14.01,2013-01-09 21:10:00,
2013-01-09 16:14:00,45.1,42.3,30.12,West,269,0.0,1.0,90,0.00,,SKC,0.00,VWS V14.01,2013-01-09 21:14:00,
2013-01-09 16:19:00,44.9,42.2,30.11,West,269,0.0,1.0,90,0.00,,SKC,0.00,VWS V14.01,2013-01-09 21:19:00,
2013-01-09 16:20:00,44.9,42.2,30.11,West,269,0.0,1.0,90,0.00,,SKC,0.00,VWS V14.01,2013-01-09 21:20:00,
2013-01-09 16:24:00,44.9,42.2,30.11,West,269,0.0,0.0,90,0.00,,SKC,0.00,VWS V14.01,2013-01-09 21:24:00,
2013-01-09 16:29:00,44.9,42.2,30.12,West,270,0.0,2.0,90,0.00,,SKC,0.00,VWS V14.01,2013-01-09 21:29:00,
2013-01-09 16:30:00,44.9,42.2,30.11,West,270,0.0,2.0,90,0.00,,SKC,0.00,VWS V14.01,2013-01-09 21:30:00,
2013-01-09 16:34:00,44.9,42.4,30.10,West,270,1.0,2.0,91,0.00,,SKC,0.00,VWS V14.01,2013-01-09 21:34:00,
2013-01-09 16:39:00,44.9,42.4,30.09,West,270,2.0,3.0,91,0.00,,SKC,0.00,VWS V14.01,2013-01-09 21:39:00,
2013-01-09 16:40:00,44.9,42.4,30.09,West,270,0.0,3.0,91,0.00,,SKC,0.00,VWS V14.01,2013-01-09 21:40:00,
2013-01-09 16:44:00,44.9,42.4,30.08,West,270,0.0,2.0,91,0.00,,SKC,0.00,VWS V14.01,2013-01-09 21:44:00,
2013-01-09 16:49:00,44.9,42.4,30.05,West,269,2.0,3.0,91,0.00,,SKC,0.00,VWS V14.01,2013-01-09 21:49:00,
2013-01-09 16:50:00,44.9,42.7,30.07,West,268,0.0,3.0,92,0.00,,SKC,0.00,VWS V14.01,2013-01-09 21:50:00,
2013-01-09 16:55:00,45.1,42.9,30.10,WNW,285,4.0,5.0,92,0.00,,SKC,0.00,VWS V14.01,2013-01-09 21:55:00,
2013-01-09 17:00:00,45.2,43.0,30.09,WNW,284,2.0,5.0,92,0.00,,SKC,0.00,VWS V14.01,2013-01-09 22:00:00,
2013-01-09 17:05:00,45.4,43.2,30.09,West,273,5.0,6.0,92,0.00,,SKC,0.00,VWS V14.01,2013-01-09 22:05:00,
2013-01-09 17:10:00,45.4,43.2,30.09,West,279,3.0,6.0,92,0.00,,SKC,0.00,VWS V14.01,2013-01-09 22:10:00,
2013-01-09 17:15:00,45.4,43.2,30.09,WNW,288,3.0,5.0,92,0.00,,SKC,0.00,VWS V14.01,2013-01-09 22:15:00,
2013-01-09 17:20:00,45.5,43.3,30.09,WNW,286,1.0,5.0,92,0.00,,SKC,0.00,VWS V14.01,2013-01-09 22:20:00,
2013-01-09 17:25:00,45.5,43.9,30.09,WNW,285,3.0,5.0,94,0.00,,SKC,0.00,VWS V14.01,2013-01-09 22:25:00,
2013-01-09 17:30:00,45.5,43.3,30.09,WNW,294,2.0,7.0,92,0.00,,SKC,0.00,VWS V14.01,2013-01-09 22:30:00,
2013-01-09 17:35:00,45.5,43.6,30.09,West,281,3.0,5.0,93,0.00,,SKC,0.00,VWS V14.01,2013-01-09 22:35:00,
2013-01-09 17:40:00,45.5,43.6,30.09,West,279,2.0,7.0,93,0.00,,SKC,0.00,VWS V14.01,2013-01-09 22:40:00,
2013-01-09 17:45:00,45.5,43.6,30.09,West,263,3.0,5.0,93,0.00,,SKC,0.00,VWS V14.01,2013-01-09 22:45:00,
2013-01-09 17:50:00,45.5,43.6,30.09,West,264,1.0,5.0,93,0.00,,SKC,0.00,VWS V14.01,2013-01-09 22:50:00,
2013-01-09 17:56:00,45.5,43.6,30.10,West,263,0.0,4.0,93,0.00,,SKC,0.00,VWS V14.01,2013-01-09 22:56:00,
2013-01-09 18:00:00,45.5,43.6,30.10,WNW,282,3.0,6.0,93,0.00,,SKC,0.00,VWS V14.01,2013-01-09 23:00:00,
2013-01-09 18:01:00,45.5,43.6,30.10,WNW,283,3.0,6.0,93,0.00,,SKC,0.00,VWS V14.01,2013-01-09 23:01:00,
2013-01-09 18:06:00,45.5,43.6,30.10,SW,216,2.0,9.0,93,0.00,,SKC,0.00,VWS V14.01,2013-01-09 23:06:00,
2013-01-09 18:10:00,45.7,43.8,30.10,West,271,2.0,9.0,93,0.00,,SKC,0.00,VWS V14.01,2013-01-09 23:10:00,
2013-01-09 18:11:00,45.7,43.8,30.10,WNW,286,8.0,9.0,93,0.00,,SKC,0.00,VWS V14.01,2013-01-09 23:11:00,
2013-01-09 18:16:00,45.8,43.9,30.11,WNW,298,4.0,7.0,93,0.00,,SKC,0.00,VWS V14.01,2013-01-09 23:16:00,
2013-01-09 18:20:00,46.0,44.1,30.11,West,269,2.0,7.0,93,0.00,,SKC,0.00,VWS V14.01,2013-01-09 23:20:00,
2013-01-09 18:21:00,46.0,44.1,30.11,West,269,4.0,7.0,93,0.00,,SKC,0.00,VWS V14.01,2013-01-09 23:21:00,
2013-01-09 18:26:00,46.1,44.2,30.10,WSW,252,1.0,12.0,93,0.00,,SKC,0.00,VWS V14.01,2013-01-09 23:26:00,
2013-01-09 18:30:00,46.2,44.3,30.11,WSW,257,2.0,12.0,93,0.00,,SKC,0.00,VWS V14.01,2013-01-09 23:30:00,
2013-01-09 18:31:00,46.2,44.3,30.11,WSW,257,2.0,12.0,93,0.00,,SKC,0.00,VWS V14.01,2013-01-09 23:31:00,
2013-01-09 18:36:00,46.4,44.5,30.11,West,266,4.0,10.0,93,0.00,,SKC,0.00,VWS V14.01,2013-01-09 23:36:00,
2013-01-09 18:40:00,46.5,44.6,30.11,West,264,3.0,15.0,93,0.00,,SKC,0.00,VWS V14.01,2013-01-09 23:40:00,
2013-01-09 18:41:00,46.5,44.6,30.11,West,266,5.0,5.0,93,0.00,,SKC,0.00,VWS V14.01,2013-01-09 23:41:00,
2013-01-09 18:46:00,46.7,44.5,30.11,West,281,3.0,5.0,92,0.00,,SKC,0.00,VWS V14.01,2013-01-09 23:46:00,
2013-01-09 18:50:00,46.7,44.5,30.10,West,273,0.0,6.0,92,0.00,,SKC,0.00,VWS V14.01,2013-01-09 23:50:00,
2013-01-09 18:51:00,46.7,44.5,30.10,West,273,3.0,3.0,92,0.00,,SKC,0.00,VWS V14.01,2013-01-09 23:51:00,
2013-01-09 18:56:00,46.5,44.3,30.10,West,265,6.0,8.0,92,0.00,,SKC,0.00,VWS V14.01,2013-01-09 23:56:00,
2013-01-09 19:00:00,46.4,44.2,30.10,West,259,1.0,8.0,92,0.00,,SKC,0.00,VWS V14.01,2013-01-10 00:00:00,
2013-01-09 19:01:00,46.4,44.2,30.10,West,273,4.0,6.0,92,0.00,,SKC,0.00,VWS V14.01,2013-01-10 00:01:00,
2013-01-09 19:06:00,46.2,43.7,30.09,WNW,286,4.0,6.0,91,0.00,,SKC,0.00,VWS V14.01,2013-01-10 00:06:00,
2013-01-09 19:10:00,46.1,43.6,30.09,West,259,3.0,6.0,91,0.00,,SKC,0.00,VWS V14.01,2013-01-10 00:10:00,
2013-01-09 19:12:00,46.0,43.5,30.09,West,265,4.0,4.0,91,0.00,,SKC,0.00,VWS V14.01,2013-01-10 00:12:00,
2013-01-09 19:17:00,45.8,43.6,30.10,WNW,298,4.0,7.0,92,0.00,,SKC,0.00,VWS V14.01,2013-01-10 00:17:00,
2013-01-09 19:20:00,45.7,43.5,30.10,West,265,2.0,7.0,92,0.00,,SKC,0.00,VWS V14.01,2013-01-10 00:20:00,
2013-01-09 19:22:00,45.7,43.5,30.10,West,277,2.0,5.0,92,0.00,,SKC,0.00,VWS V14.01,2013-01-10 00:22:00,
2013-01-09 19:27:00,45.7,43.5,30.11,NW,304,2.0,7.0,92,0.00,,SKC,0.00,VWS V14.01,2013-01-10 00:27:00,
2013-01-09 19:30:00,45.7,43.5,30.11,WNW,285,2.0,7.0,92,0.00,,SKC,0.00,VWS V14.01,2013-01-10 00:30:00,
2013-01-09 19:32:00,45.7,43.5,30.11,WNW,285,0.0,2.0,92,0.00,,SKC,0.00,VWS V14.01,2013-01-10 00:32:00,
2013-01-09 19:37:00,45.7,43.5,30.11,WNW,283,0.0,7.0,92,0.00,,SKC,0.00,VWS V14.01,2013-01-10 00:37:00,
2013-01-09 19:40:00,45.7,43.5,30.11,WNW,283,2.0,7.0,92,0.00,,SKC,0.00,VWS V14.01,2013-01-10 00:40:00,
2013-01-09 19:42:00,45.7,43.5,30.11,West,273,4.0,4.0,92,0.00,,SKC,0.00,VWS V14.01,2013-01-10 00:42:00,
2013-01-09 19:47:00,45.7,43.5,30.12,NW,325,5.0,6.0,92,0.00,,SKC,0.00,VWS V14.01,2013-01-10 00:47:00,
2013-01-09 19:50:00,45.7,43.8,30.11,West,262,1.0,6.0,93,0.00,,SKC,0.00,VWS V14.01,2013-01-10 00:50:00,
2013-01-09 19:52:00,45.7,43.8,30.12,West,268,3.0,4.0,93,0.00,,SKC,0.00,VWS V14.01,2013-01-10 00:52:00,
2013-01-09 20:03:00,45.8,43.6,30.11,WSW,258,2.0,3.0,92,0.00,,SKC,0.00,VWS V14.01,2013-01-10 01:03:00,
2013-01-09 20:08:00,46.0,43.8,30.11,WNW,284,3.0,5.0,92,0.00,,SKC,0.00,VWS V14.01,2013-01-10 01:08:00,
2013-01-09 20:10:00,46.0,43.8,30.11,West,269,1.0,6.0,92,0.00,,SKC,0.00,VWS V14.01,2013-01-10 01:10:00,
2013-01-09 20:13:00,46.0,43.8,30.11,West,261,2.0,2.0,92,0.00,,SKC,0.00,VWS V14.01,2013-01-10 01:13:00,
2013-01-09 20:21:00,46.0,43.8,30.11,WNW,288,1.0,1.0,92,0.00,,SKC,0.00,VWS V14.01,2013-01-10 01:21:00,
2013-01-09 20:26:00,46.0,43.8,30.11,West,259,2.0,6.0,92,0.00,,SKC,0.00,VWS V14.01,2013-01-10 01:26:00,
2013-01-09 20:31:00,46.1,43.6,30.11,WNW,282,3.0,3.0,91,0.00,,SKC,0.00,VWS V14.01,2013-01-10 01:31:00,
2013-01-09 20:37:00,46.1,43.6,30.11,West,270,2.0,3.0,91,0.00,,SKC,0.00,VWS V14.01,2013-01-10 01:37:00,
2013-01-09 20:42:00,46.1,43.3,30.11,West,272,0.0,2.0,90,0.00,,SKC,0.00,VWS V14.01,2013-01-10 01:42:00,
2013-01-09 20:47:00,46.1,43.3,30.11,West,281,3.0,5.0,90,0.00,,SKC,0.00,VWS V14.01,2013-01-10 01:47:00,
2013-01-09 20:52:00,46.1,43.3,30.11,WNW,282,3.0,3.0,90,0.00,,SKC,0.00,VWS V14.01,2013-01-10 01:52:00,
2013-01-09 20:57:00,46.1,43.0,30.11,WNW,286,3.0,5.0,89,0.00,,SKC,0.00,VWS V14.01,2013-01-10 01:57:00,
2013-01-09 21:02:00,46.1,43.0,30.11,West,271,4.0,5.0,89,0.00,,SKC,0.00,VWS V14.01,2013-01-10 02:02:00,
2013-01-09 21:07:00,46.2,42.8,30.11,WNW,292,0.0,7.0,88,0.00,,SKC,0.00,VWS V14.01,2013-01-10 02:07:00,
2013-01-09 21:12:00,46.2,42.8,30.11,WNW,299,1.0,3.0,88,0.00,,SKC,0.00,VWS V14.01,2013-01-10 02:12:00,
2013-01-09 21:17:00,46.2,42.5,30.10,NW,312,1.0,7.0,87,0.00,,SKC,0.00,VWS V14.01,2013-01-10 02:17:00,
2013-01-09 21:22:00,46.4,42.5,30.11,West,261,2.0,5.0,86,0.00,,SKC,0.00,VWS V14.01,2013-01-10 02:22:00,
2013-01-09 21:27:00,46.4,42.1,30.11,WSW,257,1.0,8.0,85,0.00,,SKC,0.00,VWS V14.01,2013-01-10 02:27:00,
2013-01-09 21:32:00,46.5,42.2,30.11,West,272,0.0,8.0,85,0.00,,SKC,0.00,VWS V14.01,2013-01-10 02:32:00,
2013-01-09 21:37:00,46.5,41.9,30.11,WNW,296,3.0,8.0,84,0.00,,SKC,0.00,VWS V14.01,2013-01-10 02:37:00,
2013-01-09 21:43:00,46.7,41.8,30.11,WNW,282,1.0,3.0,83,0.00,,SKC,0.00,VWS V14.01,2013-01-10 02:43:00,
2013-01-09 21:48:00,46.7,41.8,30.11,West,278,2.0,7.0,83,0.00,,SKC,0.00,VWS V14.01,2013-01-10 02:48:00,
2013-01-09 21:53:00,46.7,41.5,30.11,West,261,2.0,4.0,82,0.00,,SKC,0.00,VWS V14.01,2013-01-10 02:53:00,
2013-01-09 21:58:00,46.7,41.2,30.12,WNW,298,0.0,7.0,81,0.00,,SKC,0.00,VWS V14.01,2013-01-10 02:58:00,
2013-01-09 22:03:00,46.7,41.2,30.12,West,276,3.0,4.0,81,0.00,,SKC,0.00,VWS V14.01,2013-01-10 03:03:00,
2013-01-09 22:08:00,46.7,40.9,30.12,WNW,286,0.0,5.0,80,0.00,,SKC,0.00,VWS V14.01,2013-01-10 03:08:00,
2013-01-09 22:13:00,46.5,40.3,30.12,WNW,296,1.0,5.0,79,0.00,,SKC,0.00,VWS V14.01,2013-01-10 03:13:00,
2013-01-09 22:18:00,46.5,40.3,30.12,WSW,252,1.0,5.0,79,0.00,,SKC,0.00,VWS V14.01,2013-01-10 03:18:00,
2013-01-09 22:23:00,46.5,40.3,30.12,WNW,282,3.0,3.0,79,0.00,,SKC,0.00,VWS V14.01,2013-01-10 03:23:00,
2013-01-09 22:28:00,46.5,40.0,30.12,WNW,288,0.0,5.0,78,0.00,,SKC,0.00,VWS V14.01,2013-01-10 03:28:00,
2013-01-09 22:33:00,46.4,39.6,30.12,West,277,0.0,4.0,77,0.00,,SKC,0.00,VWS V14.01,2013-01-10 03:33:00,
2013-01-09 22:38:00,46.4,39.6,30.12,WNW,294,3.0,7.0,77,0.00,,SKC,0.00,VWS V14.01,2013-01-10 03:38:00,
2013-01-09 22:43:00,46.4,39.3,30.12,West,268,1.0,4.0,76,0.00,,SKC,0.00,VWS V14.01,2013-01-10 03:43:00,
2013-01-09 22:48:00,46.4,39.3,30.12,West,271,0.0,5.0,76,0.00,,SKC,0.00,VWS V14.01,2013-01-10 03:48:00,
2013-01-09 22:53:00,46.4,38.9,30.12,West,277,4.0,4.0,75,0.00,,SKC,0.00,VWS V14.01,2013-01-10 03:53:00,
2013-01-09 22:59:00,46.4,38.9,30.13,West,281,3.0,7.0,75,0.00,,SKC,0.00,VWS V14.01,2013-01-10 03:59:00,
2013-01-09 23:04:00,46.4,38.6,30.13,West,272,1.0,6.0,74,0.00,,SKC,0.00,VWS V14.01,2013-01-10 04:04:00,
2013-01-09 23:09:00,46.4,38.6,30.13,West,281,1.0,7.0,74,0.00,,SKC,0.00,VWS V14.01,2013-01-10 04:09:00,
2013-01-09 23:14:00,46.4,38.6,30.13,West,275,1.0,4.0,74,0.00,,SKC,0.00,VWS V14.01,2013-01-10 04:14:00,
2013-01-09 23:19:00,46.2,38.4,30.13,West,281,0.0,5.0,74,0.00,,SKC,0.00,VWS V14.01,2013-01-10 04:19:00,
2013-01-09 23:24:00,46.2,38.4,30.12,WNW,286,0.0,6.0,74,0.00,,SKC,0.00,VWS V14.01,2013-01-10 04:24:00,
2013-01-09 23:29:00,46.1,38.3,30.13,WSW,247,3.0,6.0,74,0.00,,SKC,0.00,VWS V14.01,2013-01-10 04:29:00,
2013-01-09 23:34:00,46.1,38.6,30.12,West,267,3.0,7.0,75,0.00,,SKC,0.00,VWS V14.01,2013-01-10 04:34:00,
2013-01-09 23:39:00,46.1,38.6,30.12,WNW,298,6.0,7.0,75,0.00,,SKC,0.00,VWS V14.01,2013-01-10 04:39:00,
2013-01-09 23:44:00,46.0,38.5,30.12,West,269,1.0,5.0,75,0.00,,SKC,0.00,VWS V14.01,2013-01-10 04:44:00,
2013-01-09 23:49:00,46.0,38.5,30.13,WNW,292,0.0,6.0,75,0.00,,SKC,0.00,VWS V14.01,2013-01-10 04:49:00,
2013-01-09 23:54:00,45.8,38.3,30.13,West,278,0.0,4.0,75,0.00,,SKC,0.00,VWS V14.01,2013-01-10 04:54:00,
2013-01-09 23:59:00,45.7,37.9,30.13,WNW,292,2.0,6.0,74,0.00,,SKC,0.00,VWS V14.01,2013-01-10 04:59:00,